Página principal
METAR-TAF:

METAR-TAF

Aeroportos :

Aeroporto Internacional de Cartum

Cartum, Sudão

latitude: 15-36N, longitude: 032-33E, altura: 382 m

Observação actual do tempo

O boletim foi feito há 6 minutos, às 04:00 UTC
Vento 5 kt de oeste
Temperatura 31°C
Humidade 38%
Pressão 1008 hPa
Visibilidade 10 km ou mais
sem nuvens abaixo de 1500 metros e sem cumulonimbus

METAR: HSSS 240400Z 27005KT CAVOK 31/15 Q1008 NOSIG

Hora: 07:06 (04:06 UTC)

Previsão

O boletim foi feito há 11 horas e 6 minutos, às 17:00 UTC
Previsão válida de 23 às 18 UTC a 24 às 24 UTC
Vento 8 kt de su-sudoeste
Visibilidade 10 km ou mais
Poucas nuvensa uma altura de 4000 ft
Nuvens dispersasa uma altura de 14000 ft
Temporariamente
de 23 às 18 UTC a 23 às 21 UTC
Visibilidade: 4000 m
Areia levantada pelo vento

TAF: HSSS 231700Z 2318/2424 21008KT 9999 FEW040 SCT140 TEMPO 2318/2321 4000 BLSA

Observações e previsões do tempo de mais de 4000 aeroportos (mensagens METAR e TAF).

As estações disponíveis são os pontos amarelos e vermelhos sobre o mapa.

Mova o rato sobre o mapa para ver o nome da estação.

Depois clique no ponto para visualizar as observações e previsões meteorológicas.

Para alterar o mapa : clique nos botões verdes com uma cruz preta para aumentar o zoom; no botão verde com uma pitada de zoom; ou nas setas verdes para mapas adjacentes.


METAR-TAF: